createdAt,value
2023-04-26T00:00:13.401Z,95.70
2023-04-26T00:02:40.592Z,95.90
2023-04-26T00:05:09.050Z,95.60
2023-04-26T00:07:37.952Z,95.60
2023-04-26T00:10:06.369Z,95.40
2023-04-26T00:12:33.222Z,95.40
2023-04-26T00:14:59.929Z,95.60
2023-04-26T00:17:26.533Z,95.60
2023-04-26T00:19:53.277Z,95.60
2023-04-26T00:22:20.127Z,96.20
2023-04-26T00:24:46.711Z,95.70
2023-04-26T00:27:13.403Z,96.20
2023-04-26T00:29:40.096Z,95.30
2023-04-26T00:32:06.760Z,95.90
2023-04-26T00:34:34.560Z,96.60
2023-04-26T00:37:01.232Z,96.40
2023-04-26T00:39:27.969Z,99.90
2023-04-26T00:41:55.033Z,96.50
2023-04-26T00:44:21.810Z,97.30
2023-04-26T00:46:49.899Z,96.80
2023-04-26T00:49:18.764Z,96.90
2023-04-26T00:51:45.941Z,97.10
2023-04-26T00:54:16.139Z,97.20
2023-04-26T00:56:43.254Z,97.30
2023-04-26T00:59:10.070Z,97.00
2023-04-26T01:01:37.904Z,97.10
2023-04-26T01:04:04.670Z,97.10
2023-04-26T01:06:35.595Z,96.90
2023-04-26T01:09:08.306Z,97.30
2023-04-26T01:11:36.928Z,97.10
2023-04-26T01:14:05.268Z,97.00
2023-04-26T01:16:33.683Z,96.70
2023-04-26T01:19:13.648Z,96.60
2023-04-26T01:21:41.472Z,97.40
2023-04-26T01:24:13.009Z,97.10
2023-04-26T01:26:45.500Z,96.90
2023-04-26T01:29:21.708Z,97.20
2023-04-26T01:31:49.165Z,97.00
2023-04-26T01:34:16.364Z,96.80
2023-04-26T01:36:45.938Z,96.90
2023-04-26T01:39:12.702Z,97.20
2023-04-26T01:41:39.336Z,97.20
2023-04-26T01:44:05.971Z,97.10
2023-04-26T01:46:32.672Z,96.80
2023-04-26T01:48:59.392Z,96.70
2023-04-26T01:51:27.101Z,96.30
2023-04-26T01:53:53.698Z,96.80
2023-04-26T01:56:20.830Z,96.50
2023-04-26T01:58:47.632Z,96.60
2023-04-26T02:01:14.393Z,96.70
2023-04-26T02:03:41.304Z,96.50
2023-04-26T02:06:08.170Z,96.60
2023-04-26T02:08:35.952Z,96.60
2023-04-26T02:11:02.580Z,96.90
2023-04-26T02:13:31.081Z,96.70
2023-04-26T02:15:57.847Z,96.70
2023-04-26T02:18:24.837Z,96.60
2023-04-26T02:20:51.484Z,96.60
2023-04-26T02:23:18.099Z,96.60
2023-04-26T02:25:48.860Z,97.60
2023-04-26T02:28:17.417Z,97.10
2023-04-26T02:30:44.671Z,97.00
2023-04-26T02:33:11.559Z,98.90
2023-04-26T02:35:38.686Z,97.30
2023-04-26T02:38:05.749Z,97.50
2023-04-26T02:40:32.497Z,97.70
2023-04-26T02:42:59.331Z,98.30
2023-04-26T02:45:25.987Z,98.10
2023-04-26T02:47:53.012Z,98.60
2023-04-26T02:50:20.285Z,98.50
2023-04-26T02:52:48.376Z,98.20
2023-04-26T02:55:15.146Z,98.30
2023-04-26T02:57:42.693Z,98.20
2023-04-26T03:00:10.232Z,98.50
2023-04-26T03:02:37.373Z,98.40
2023-04-26T03:05:04.430Z,98.50
2023-04-26T03:07:31.814Z,98.10
2023-04-26T03:09:58.568Z,98.10
2023-04-26T03:12:25.159Z,98.10
2023-04-26T03:14:51.974Z,98.00
2023-04-26T03:17:18.675Z,98.20
2023-04-26T03:19:45.545Z,98.00
2023-04-26T03:22:16.027Z,99.50
2023-04-26T03:24:43.909Z,97.60
2023-04-26T03:27:11.653Z,98.00
2023-04-26T03:29:38.968Z,98.00
2023-04-26T03:32:07.246Z,98.10
2023-04-26T03:34:33.967Z,98.00
2023-04-26T03:37:01.794Z,99.00
2023-04-26T03:39:29.402Z,98.50
2023-04-26T03:41:56.377Z,98.00
2023-04-26T03:44:23.024Z,98.20
2023-04-26T03:46:49.619Z,98.90
2023-04-26T03:49:16.283Z,98.00
2023-04-26T03:51:45.248Z,97.90
2023-04-26T03:54:11.830Z,97.90
2023-04-26T03:56:40.057Z,97.90
2023-04-26T03:59:07.263Z,97.70
2023-04-26T04:01:36.427Z,98.20
2023-04-26T04:04:03.398Z,97.70
2023-04-26T04:06:30.972Z,98.10
2023-04-26T04:08:57.586Z,98.30
2023-04-26T04:11:24.280Z,97.50
2023-04-26T04:13:51.062Z,98.40
2023-04-26T04:16:17.928Z,97.60
2023-04-26T04:18:44.549Z,97.40
2023-04-26T04:21:11.219Z,97.60
2023-04-26T04:23:39.137Z,98.00
2023-04-26T04:26:08.838Z,97.90
2023-04-26T04:28:35.518Z,98.10
2023-04-26T04:31:02.134Z,97.60
2023-04-26T04:33:29.498Z,97.80
2023-04-26T04:35:58.549Z,98.20
2023-04-26T04:38:25.714Z,97.70
2023-04-26T04:40:53.362Z,97.90
2023-04-26T04:43:20.043Z,98.20
2023-04-26T04:45:47.836Z,97.90
2023-04-26T04:48:14.456Z,98.10
2023-04-26T04:50:42.058Z,97.90
2023-04-26T04:53:09.197Z,98.00
2023-04-26T04:55:36.678Z,97.90
2023-04-26T04:58:04.143Z,97.90
2023-04-26T05:00:32.280Z,98.10
2023-04-26T05:03:04.717Z,98.40
2023-04-26T05:05:31.656Z,98.20
2023-04-26T05:07:58.430Z,98.50
2023-04-26T05:10:26.315Z,98.20
2023-04-26T05:12:53.756Z,98.10
2023-04-26T05:15:20.407Z,97.80
2023-04-26T05:17:47.107Z,98.00
2023-04-26T05:20:17.957Z,98.10
2023-04-26T05:22:44.703Z,98.20
2023-04-26T05:25:13.409Z,98.30
2023-04-26T05:27:40.330Z,98.20
2023-04-26T05:30:14.837Z,98.50
2023-04-26T05:32:58.578Z,98.10
2023-04-26T05:36:01.438Z,98.20
2023-04-26T05:38:28.875Z,98.10
2023-04-26T05:40:55.505Z,98.10
2023-04-26T05:43:22.566Z,98.20
2023-04-26T05:45:51.850Z,98.60
2023-04-26T05:48:21.136Z,98.70
2023-04-26T05:50:48.220Z,98.50
2023-04-26T05:53:15.243Z,98.70
2023-04-26T05:55:42.649Z,98.20
2023-04-26T05:58:10.040Z,98.80
2023-04-26T06:00:38.604Z,98.20
2023-04-26T06:03:06.824Z,98.90
2023-04-26T06:05:33.792Z,98.20
2023-04-26T06:08:01.522Z,98.60
2023-04-26T06:10:29.062Z,98.10
2023-04-26T06:12:55.788Z,98.40
2023-04-26T06:15:23.460Z,98.30
2023-04-26T06:17:50.192Z,98.40
2023-04-26T06:20:16.919Z,97.70
2023-04-26T06:22:43.554Z,98.50
2023-04-26T06:25:10.414Z,98.70
2023-04-26T06:27:39.102Z,98.60
2023-04-26T06:30:07.766Z,97.90
2023-04-26T06:32:40.409Z,98.40
2023-04-26T06:35:07.376Z,98.20
2023-04-26T06:37:34.394Z,98.50
2023-04-26T06:40:02.017Z,98.20
2023-04-26T06:42:28.667Z,97.70
2023-04-26T06:45:24.179Z,97.40
2023-04-26T06:47:54.236Z,97.60
2023-04-26T06:50:24.032Z,97.10
2023-04-26T06:52:51.377Z,97.90
2023-04-26T06:55:18.838Z,97.70
2023-04-26T06:57:46.244Z,96.50
2023-04-26T07:00:13.700Z,97.10
2023-04-26T07:02:40.395Z,98.80
2023-04-26T07:05:07.468Z,96.70
2023-04-26T07:07:34.201Z,98.90
2023-04-26T07:10:00.793Z,96.80
2023-04-26T07:12:27.588Z,98.80
2023-04-26T07:14:54.298Z,96.80
2023-04-26T07:17:22.141Z,96.60
2023-04-26T07:19:48.779Z,97.70
2023-04-26T07:22:15.479Z,96.70
2023-04-26T07:24:42.085Z,96.10
2023-04-26T07:27:08.806Z,98.90
2023-04-26T07:29:39.907Z,95.50
2023-04-26T07:32:06.820Z,99.60
2023-04-26T07:34:33.465Z,95.90
2023-04-26T07:37:00.455Z,95.20
2023-04-26T07:39:27.081Z,96.20
2023-04-26T07:41:53.707Z,95.60
2023-04-26T07:44:20.386Z,95.40
2023-04-26T07:46:47.142Z,95.70
2023-04-26T07:49:13.837Z,99.90
2023-04-26T07:51:43.443Z,95.00
2023-04-26T07:54:10.114Z,94.70
2023-04-26T07:56:36.800Z,94.90
2023-04-26T07:59:04.905Z,99.90
2023-04-26T08:01:31.531Z,94.90
2023-04-26T08:03:58.380Z,94.70
2023-04-26T08:06:25.787Z,94.30
2023-04-26T08:08:56.686Z,96.40
2023-04-26T08:11:23.408Z,97.80
2023-04-26T08:13:50.444Z,99.90
2023-04-26T08:16:17.408Z,99.50
2023-04-26T08:18:46.586Z,99.90
2023-04-26T08:21:13.727Z,97.70
2023-04-26T08:23:40.642Z,97.80
2023-04-26T08:26:07.295Z,99.00
2023-04-26T08:28:35.596Z,99.10
2023-04-26T08:31:02.332Z,99.20
2023-04-26T08:33:29.022Z,99.70
2023-04-26T08:35:55.886Z,99.90
2023-04-26T08:38:22.808Z,99.70
2023-04-26T08:40:51.231Z,99.60
2023-04-26T08:43:17.961Z,99.90
2023-04-26T08:45:49.307Z,99.80
2023-04-26T08:48:18.147Z,99.90
2023-04-26T08:50:46.462Z,99.90
2023-04-26T08:53:17.797Z,98.60
2023-04-26T08:55:49.303Z,98.70
2023-04-26T08:58:17.669Z,99.30
2023-04-26T09:00:46.018Z,99.90
2023-04-26T09:03:12.953Z,99.60
2023-04-26T09:05:43.859Z,99.90
2023-04-26T09:08:16.050Z,98.40
2023-04-26T09:10:42.901Z,98.50
2023-04-26T09:13:09.574Z,97.30
2023-04-26T09:15:36.327Z,98.00
2023-04-26T09:18:22.112Z,98.40
2023-04-26T09:21:06.766Z,99.90
2023-04-26T09:23:34.240Z,99.90
2023-04-26T09:26:20.920Z,97.70
2023-04-26T09:28:47.941Z,97.10
2023-04-26T09:31:38.879Z,97.30
2023-04-26T09:34:05.818Z,96.70
2023-04-26T09:36:32.599Z,97.80
2023-04-26T09:39:02.477Z,95.50
2023-04-26T09:41:45.169Z,99.30
2023-04-26T09:44:23.027Z,96.70
2023-04-26T09:46:59.998Z,94.70
2023-04-26T09:49:48.646Z,93.60
2023-04-26T09:52:16.249Z,93.90
2023-04-26T09:54:48.284Z,96.60
2023-04-26T09:57:16.563Z,99.90
2023-04-26T09:59:48.813Z,97.40
2023-04-26T10:02:21.594Z,92.50
2023-04-26T10:04:50.364Z,92.60
2023-04-26T10:07:19.046Z,98.30
2023-04-26T10:09:46.674Z,95.80
2023-04-26T10:12:18.640Z,91.70
2023-04-26T10:14:46.503Z,91.30
2023-04-26T10:17:14.096Z,97.70
2023-04-26T10:19:44.416Z,92.10
2023-04-26T10:24:57.993Z,93.20
2023-04-26T10:27:43.140Z,99.30
2023-04-26T10:30:16.442Z,93.70
2023-04-26T10:32:52.967Z,94.80
2023-04-26T10:35:20.161Z,96.80
2023-04-26T10:38:01.908Z,94.90
2023-04-26T10:40:33.518Z,96.60
2023-04-26T10:43:13.622Z,94.90
2023-04-26T10:45:45.594Z,94.40
2023-04-26T10:48:22.497Z,95.40
2023-04-26T10:51:01.695Z,97.50
2023-04-26T10:53:33.080Z,93.80
2023-04-26T10:55:59.818Z,93.60
2023-04-26T10:58:27.703Z,93.10
2023-04-26T11:01:17.812Z,92.50
2023-04-26T11:03:57.086Z,92.80
2023-04-26T11:06:25.466Z,93.20
2023-04-26T11:08:53.906Z,93.40
2023-04-26T11:11:26.962Z,93.50
2023-04-26T11:13:53.680Z,98.20
2023-04-26T11:16:20.598Z,99.80
2023-04-26T11:18:48.201Z,91.70
2023-04-26T11:21:19.507Z,91.50
2023-04-26T11:23:55.796Z,92.40
2023-04-26T11:26:22.628Z,92.10
2023-04-26T11:28:49.482Z,92.00
2023-04-26T11:31:19.360Z,94.60
2023-04-26T11:33:48.484Z,93.40
2023-04-26T11:36:17.370Z,93.10
2023-04-26T11:38:44.229Z,96.00
2023-04-26T11:41:11.335Z,97.10
2023-04-26T11:43:39.519Z,94.90
2023-04-26T11:46:07.539Z,92.90
2023-04-26T11:48:40.938Z,93.80
2023-04-26T11:51:08.825Z,95.20
2023-04-26T11:53:42.955Z,91.60
2023-04-26T11:56:20.469Z,98.10
2023-04-26T11:58:52.077Z,99.80
2023-04-26T12:01:27.185Z,94.40
2023-04-26T12:03:58.970Z,98.20
2023-04-26T12:06:46.118Z,95.60
2023-04-26T12:09:13.174Z,94.10
2023-04-26T12:11:40.776Z,95.50
2023-04-26T12:14:11.420Z,95.90
2023-04-26T12:16:38.200Z,97.50
2023-04-26T12:19:07.198Z,93.60
2023-04-26T12:21:44.179Z,94.50
2023-04-26T12:24:24.675Z,92.00
2023-04-26T12:26:51.442Z,90.90
2023-04-26T12:29:18.308Z,94.50
2023-04-26T12:31:45.062Z,94.70
2023-04-26T12:34:11.723Z,95.70
2023-04-26T12:36:40.558Z,97.80
2023-04-26T12:39:07.273Z,98.10
2023-04-26T12:41:34.019Z,90.00
2023-04-26T12:44:00.870Z,93.90
2023-04-26T12:46:27.597Z,91.60
2023-04-26T12:48:54.834Z,96.30
2023-04-26T12:51:21.767Z,92.00
2023-04-26T12:53:48.371Z,93.30
2023-04-26T12:56:16.211Z,95.80
2023-04-26T12:58:42.975Z,93.50
2023-04-26T13:01:10.942Z,91.50
2023-04-26T13:03:38.073Z,91.20
2023-04-26T13:06:04.996Z,92.00
2023-04-26T13:08:31.944Z,83.80
2023-04-26T13:10:59.190Z,83.90
2023-04-26T13:13:32.410Z,90.50
2023-04-26T13:16:02.938Z,89.30
2023-04-26T13:18:31.584Z,89.20
2023-04-26T13:20:58.198Z,88.50
2023-04-26T13:23:24.888Z,90.70
2023-04-26T13:25:51.572Z,90.70
2023-04-26T13:28:18.180Z,89.80
2023-04-26T13:30:44.842Z,91.20
2023-04-26T13:33:11.608Z,90.00
2023-04-26T13:35:38.306Z,88.00
2023-04-26T13:38:04.954Z,90.80
2023-04-26T13:40:31.769Z,95.30
2023-04-26T13:42:58.487Z,90.70
2023-04-26T13:45:25.204Z,90.40
2023-04-26T13:47:51.832Z,90.80
2023-04-26T13:50:18.629Z,87.60
2023-04-26T13:52:45.517Z,84.80
2023-04-26T13:55:12.568Z,92.00
2023-04-26T13:57:39.198Z,89.90
2023-04-26T14:00:08.051Z,94.50
2023-04-26T14:02:38.588Z,86.80
2023-04-26T14:05:05.991Z,88.20
2023-04-26T14:07:33.449Z,87.50
2023-04-26T14:10:01.354Z,91.50
2023-04-26T14:12:28.870Z,84.30
2023-04-26T14:14:55.564Z,81.70
2023-04-26T14:17:22.271Z,85.00
2023-04-26T14:19:48.978Z,82.40
2023-04-26T14:22:17.598Z,83.60
2023-04-26T14:24:44.464Z,90.20
2023-04-26T14:27:11.344Z,82.00
2023-04-26T14:29:37.981Z,83.90
2023-04-26T14:32:04.899Z,90.80
2023-04-26T14:34:31.575Z,80.40
2023-04-26T14:37:01.476Z,80.10
2023-04-26T14:39:28.252Z,79.30
2023-04-26T14:41:56.673Z,90.30
2023-04-26T14:44:27.190Z,79.40
2023-04-26T14:46:53.842Z,83.40
2023-04-26T14:49:20.740Z,91.40
2023-04-26T14:51:47.553Z,86.80
2023-04-26T14:54:15.436Z,83.40
2023-04-26T14:56:42.162Z,86.30
2023-04-26T14:59:08.790Z,89.00
2023-04-26T15:01:35.501Z,86.50
2023-04-26T15:04:02.449Z,86.00
2023-04-26T15:06:31.076Z,84.20
2023-04-26T15:08:57.767Z,82.30
2023-04-26T15:11:24.592Z,84.10
2023-04-26T15:13:51.232Z,84.30
2023-04-26T15:16:18.152Z,87.60
2023-04-26T15:18:44.877Z,88.90
2023-04-26T15:21:16.888Z,85.10
2023-04-26T15:23:43.526Z,87.20
2023-04-26T15:26:10.383Z,87.20
2023-04-26T15:28:37.146Z,84.60
2023-04-26T15:31:09.568Z,81.40
2023-04-26T15:33:36.643Z,93.20
2023-04-26T15:36:03.480Z,85.80
2023-04-26T15:38:30.122Z,84.10
2023-04-26T15:40:56.742Z,83.00
2023-04-26T15:43:23.355Z,82.90
2023-04-26T15:45:50.192Z,85.20
2023-04-26T15:48:17.470Z,82.60
2023-04-26T15:50:53.785Z,82.40
2023-04-26T15:53:21.831Z,85.20
2023-04-26T15:55:48.558Z,84.10
2023-04-26T15:58:15.211Z,83.80
2023-04-26T16:00:41.955Z,84.90
2023-04-26T16:03:08.939Z,84.30
2023-04-26T16:05:35.562Z,84.10
2023-04-26T16:08:03.237Z,84.10
2023-04-26T16:10:29.839Z,84.60
2023-04-26T16:12:56.519Z,84.10
2023-04-26T16:15:23.260Z,83.70
2023-04-26T16:17:50.095Z,83.90
2023-04-26T16:20:16.765Z,84.30
2023-04-26T16:22:45.079Z,85.50
2023-04-26T16:25:12.083Z,86.10
2023-04-26T16:27:38.799Z,85.10
2023-04-26T16:30:06.016Z,85.80
2023-04-26T16:32:33.091Z,85.80
2023-04-26T16:35:00.157Z,85.40
2023-04-26T16:37:26.808Z,86.80
2023-04-26T16:39:56.483Z,87.40
2023-04-26T16:42:23.402Z,90.60
2023-04-26T16:44:50.345Z,87.70
2023-04-26T16:47:17.101Z,87.90
2023-04-26T16:49:43.722Z,88.00
2023-04-26T16:52:10.701Z,86.60
2023-04-26T16:54:37.434Z,88.00
2023-04-26T16:57:04.512Z,87.80
2023-04-26T16:59:31.283Z,87.50
2023-04-26T17:04:41.738Z,87.20
2023-04-26T17:07:08.813Z,88.90
2023-04-26T17:09:37.311Z,87.10
2023-04-26T17:12:05.434Z,88.40
2023-04-26T17:14:32.455Z,85.40
2023-04-26T17:16:59.233Z,83.50
2023-04-26T17:19:25.930Z,82.80
2023-04-26T17:21:52.786Z,93.80
2023-04-26T17:24:19.458Z,96.40
2023-04-26T17:26:46.714Z,92.60
2023-04-26T17:29:13.961Z,92.50
2023-04-26T17:31:40.674Z,93.20
2023-04-26T17:34:07.397Z,95.20
2023-04-26T17:36:33.991Z,97.50
2023-04-26T17:39:00.932Z,96.40
2023-04-26T17:41:27.547Z,96.10
2023-04-26T17:43:54.120Z,92.80
2023-04-26T17:46:20.925Z,87.80
2023-04-26T17:48:47.572Z,93.40
2023-04-26T17:51:14.288Z,85.20
2023-04-26T17:53:40.971Z,90.90
2023-04-26T17:56:09.798Z,96.30
2023-04-26T17:58:36.788Z,86.50
2023-04-26T18:01:04.366Z,92.50
2023-04-26T18:03:31.572Z,92.70
2023-04-26T18:05:58.426Z,85.40
2023-04-26T18:08:25.373Z,84.80
2023-04-26T18:10:53.787Z,97.70
2023-04-26T18:13:21.075Z,91.30
2023-04-26T18:15:47.862Z,96.30
2023-04-26T18:18:14.538Z,92.00
2023-04-26T18:20:41.152Z,90.90
2023-04-26T18:23:07.766Z,91.10
2023-04-26T18:25:34.358Z,89.80
2023-04-26T18:28:00.945Z,90.70
2023-04-26T18:30:27.557Z,95.40
2023-04-26T18:32:54.248Z,94.30
2023-04-26T18:35:21.059Z,87.40
2023-04-26T18:37:47.899Z,87.00
2023-04-26T18:40:14.784Z,87.30
2023-04-26T18:42:41.947Z,91.60
2023-04-26T18:45:09.352Z,88.70
2023-04-26T18:47:36.055Z,89.80
2023-04-26T18:50:03.435Z,87.50
2023-04-26T18:52:30.104Z,88.40
2023-04-26T18:54:56.901Z,87.60
2023-04-26T18:57:26.579Z,88.40
2023-04-26T18:59:53.330Z,92.60
2023-04-26T19:02:20.030Z,89.40
2023-04-26T19:04:49.021Z,89.30
2023-04-26T19:07:17.174Z,90.30
2023-04-26T19:09:53.669Z,91.10
2023-04-26T19:12:21.081Z,90.20
2023-04-26T19:14:47.747Z,90.30
2023-04-26T19:17:14.344Z,90.30
2023-04-26T19:19:41.017Z,90.40
2023-04-26T19:22:07.597Z,91.80
2023-04-26T19:24:34.289Z,90.60
2023-04-26T19:27:00.847Z,90.50
2023-04-26T19:29:27.486Z,91.10
2023-04-26T19:31:54.348Z,91.00
2023-04-26T19:34:21.694Z,94.00
2023-04-26T19:36:48.472Z,91.10
2023-04-26T19:39:16.444Z,91.00
2023-04-26T19:41:43.480Z,91.30
2023-04-26T19:44:10.141Z,91.50
2023-04-26T19:46:37.706Z,91.40
2023-04-26T19:49:05.366Z,91.40
2023-04-26T19:51:32.267Z,92.30
2023-04-26T19:53:58.843Z,92.80
2023-04-26T19:56:25.784Z,91.70
2023-04-26T19:58:52.402Z,90.90
2023-04-26T20:01:19.386Z,90.90
2023-04-26T20:03:48.407Z,93.20
2023-04-26T20:06:15.140Z,91.50
2023-04-26T20:08:41.884Z,90.80
2023-04-26T20:11:14.615Z,92.30
2023-04-26T20:13:42.698Z,90.80
2023-04-26T20:16:10.065Z,91.10
2023-04-26T20:18:37.389Z,91.30
2023-04-26T20:21:04.962Z,91.60
2023-04-26T20:23:32.040Z,91.10
2023-04-26T20:25:58.725Z,91.50
2023-04-26T20:28:25.859Z,91.50
2023-04-26T20:30:53.058Z,91.30
2023-04-26T20:33:19.842Z,91.80
2023-04-26T20:35:46.790Z,91.60
2023-04-26T20:38:13.374Z,91.70
2023-04-26T20:40:39.997Z,91.70
2023-04-26T20:43:06.826Z,91.70
2023-04-26T20:45:33.424Z,92.00
2023-04-26T20:48:00.138Z,92.00
2023-04-26T20:50:26.886Z,92.10
2023-04-26T20:52:53.520Z,92.20
2023-04-26T20:55:20.204Z,92.30
2023-04-26T20:57:47.417Z,92.20
2023-04-26T21:00:14.323Z,92.00
2023-04-26T21:02:41.619Z,92.20
2023-04-26T21:05:08.756Z,93.20
2023-04-26T21:07:35.529Z,91.90
2023-04-26T21:10:02.114Z,91.90
2023-04-26T21:12:28.810Z,92.30
2023-04-26T21:14:55.755Z,92.50
2023-04-26T21:17:22.536Z,92.40
2023-04-26T21:19:49.215Z,92.30
2023-04-26T21:22:15.863Z,92.40
2023-04-26T21:24:42.473Z,92.00
2023-04-26T21:27:09.463Z,92.00
2023-04-26T21:29:36.091Z,92.40
2023-04-26T21:32:02.872Z,92.20
2023-04-26T21:34:29.524Z,92.10
2023-04-26T21:36:56.221Z,92.00
2023-04-26T21:39:22.909Z,92.30
2023-04-26T21:41:49.505Z,92.40
2023-04-26T21:44:16.155Z,92.70
2023-04-26T21:46:42.957Z,92.60
2023-04-26T21:49:10.362Z,92.60
2023-04-26T21:51:37.309Z,92.90
2023-04-26T21:54:04.002Z,92.80
2023-04-26T21:56:30.660Z,92.90
2023-04-26T21:58:57.320Z,93.00
2023-04-26T22:01:24.014Z,92.60
2023-04-26T22:03:50.731Z,92.80
2023-04-26T22:06:17.452Z,92.80
2023-04-26T22:08:44.184Z,92.90
2023-04-26T22:11:10.943Z,92.70
2023-04-26T22:13:37.601Z,92.80
2023-04-26T22:16:04.670Z,92.70
2023-04-26T22:18:32.331Z,92.90
2023-04-26T22:20:59.010Z,92.90
2023-04-26T22:23:25.827Z,93.00
2023-04-26T22:25:52.488Z,92.70
2023-04-26T22:28:19.137Z,92.80
2023-04-26T22:30:46.577Z,92.60
2023-04-26T22:33:13.171Z,93.10
2023-04-26T22:35:39.897Z,93.10
2023-04-26T22:38:06.543Z,92.90
2023-04-26T22:40:33.403Z,93.00
2023-04-26T22:43:00.050Z,92.90
2023-04-26T22:45:26.929Z,93.00
2023-04-26T22:47:53.641Z,93.10
2023-04-26T22:50:20.829Z,93.00
2023-04-26T22:52:47.521Z,93.10
2023-04-26T22:55:14.202Z,93.30
2023-04-26T22:57:40.880Z,93.20
2023-04-26T23:00:09.944Z,93.30
2023-04-26T23:02:36.742Z,93.30
2023-04-26T23:05:05.053Z,93.30
2023-04-26T23:07:33.297Z,93.40
2023-04-26T23:10:00.028Z,93.30
2023-04-26T23:12:27.510Z,93.30
2023-04-26T23:14:58.271Z,93.30
2023-04-26T23:17:26.428Z,93.60
2023-04-26T23:19:53.614Z,93.60
2023-04-26T23:22:20.389Z,93.30
2023-04-26T23:24:47.127Z,93.20
2023-04-26T23:27:13.755Z,93.20
2023-04-26T23:29:40.385Z,93.30
2023-04-26T23:32:06.976Z,93.50
2023-04-26T23:34:33.583Z,93.30
2023-04-26T23:37:07.230Z,93.50
2023-04-26T23:39:35.516Z,93.40
2023-04-26T23:42:02.362Z,93.60
2023-04-26T23:44:29.121Z,93.60
2023-04-26T23:46:55.920Z,93.60
2023-04-26T23:49:22.790Z,93.90
2023-04-26T23:51:49.387Z,93.40
2023-04-26T23:54:16.498Z,93.30
2023-04-26T23:56:43.120Z,93.60
2023-04-26T23:59:09.750Z,93.80
